createdAt,value
2022-11-03T00:01:36.141Z,5.80
2022-11-03T00:04:04.476Z,5.63
2022-11-03T00:06:34.444Z,5.53
2022-11-03T00:09:04.746Z,5.59
2022-11-03T00:11:33.510Z,5.53
2022-11-03T00:14:02.002Z,5.41
2022-11-03T00:16:30.008Z,5.32
2022-11-03T00:18:57.788Z,5.55
2022-11-03T00:21:25.859Z,5.44
2022-11-03T00:23:55.435Z,5.45
2022-11-03T00:26:24.660Z,5.46
2022-11-03T00:28:54.000Z,5.30
2022-11-03T00:31:23.735Z,5.29
2022-11-03T00:33:52.287Z,5.26
2022-11-03T00:36:21.994Z,5.25
2022-11-03T00:38:50.244Z,5.21
2022-11-03T00:41:21.350Z,5.16
2022-11-03T00:43:49.941Z,5.17
2022-11-03T00:46:18.770Z,5.16
2022-11-03T00:48:46.775Z,5.23
2022-11-03T00:51:16.377Z,5.14
2022-11-03T00:53:46.234Z,5.16
2022-11-03T00:56:16.051Z,5.18
2022-11-03T00:58:45.846Z,5.24
2022-11-03T01:01:14.888Z,5.33
2022-11-03T01:04:05.791Z,5.18
2022-11-03T01:06:51.166Z,5.12
2022-11-03T01:09:19.795Z,5.12
2022-11-03T01:11:59.357Z,5.13
2022-11-03T01:14:30.769Z,5.16
2022-11-03T01:16:59.067Z,5.00
2022-11-03T01:19:27.980Z,5.22
2022-11-03T01:21:55.795Z,5.26
2022-11-03T01:24:23.676Z,5.19
2022-11-03T01:26:51.571Z,5.19
2022-11-03T01:29:19.791Z,5.08
2022-11-03T01:31:49.061Z,5.09
2022-11-03T01:34:18.379Z,5.12
2022-11-03T01:36:47.155Z,4.93
2022-11-03T01:39:16.781Z,5.09
2022-11-03T01:41:46.393Z,4.79
2022-11-03T01:44:35.926Z,5.04
2022-11-03T01:47:28.583Z,5.18
2022-11-03T01:50:02.562Z,5.04
2022-11-03T01:52:36.694Z,4.82
2022-11-03T01:55:10.023Z,4.88
2022-11-03T01:57:43.009Z,4.81
2022-11-03T02:00:12.024Z,4.76
2022-11-03T02:02:44.332Z,4.73
2022-11-03T02:05:13.833Z,4.69
2022-11-03T02:07:48.116Z,4.70
2022-11-03T02:10:16.126Z,4.66
2022-11-03T02:12:45.107Z,4.73
2022-11-03T02:15:15.769Z,4.89
2022-11-03T02:17:47.613Z,5.10
2022-11-03T02:20:18.897Z,5.12
2022-11-03T02:23:04.030Z,5.20
2022-11-03T02:25:41.362Z,5.15
2022-11-03T02:28:09.813Z,5.16
2022-11-03T02:30:42.880Z,5.06
2022-11-03T02:33:19.817Z,5.10
2022-11-03T02:35:52.649Z,5.14
2022-11-03T02:38:24.678Z,5.07
2022-11-03T02:40:57.349Z,5.19
2022-11-03T02:43:27.038Z,5.03
2022-11-03T02:45:56.621Z,5.17
2022-11-03T02:48:24.431Z,4.96
2022-11-03T02:50:52.240Z,5.23
2022-11-03T02:53:20.793Z,5.05
2022-11-03T02:55:56.841Z,5.20
2022-11-03T02:58:31.634Z,5.01
2022-11-03T03:01:04.010Z,4.93
2022-11-03T03:03:36.301Z,5.02
2022-11-03T03:06:09.495Z,5.24
2022-11-03T03:08:41.163Z,5.24
2022-11-03T03:11:13.569Z,5.22
2022-11-03T03:13:42.379Z,5.13
2022-11-03T03:16:17.221Z,5.35
2022-11-03T03:18:50.486Z,5.07
2022-11-03T03:21:22.219Z,5.18
2022-11-03T03:23:58.215Z,5.20
2022-11-03T03:26:30.898Z,5.20
2022-11-03T03:29:03.979Z,5.36
2022-11-03T03:31:37.419Z,5.41
2022-11-03T03:34:23.611Z,5.37
2022-11-03T03:36:56.776Z,5.47
2022-11-03T03:39:29.822Z,5.55
2022-11-03T03:42:02.324Z,5.51
2022-11-03T03:44:32.063Z,5.41
2022-11-03T03:47:01.821Z,5.41
2022-11-03T03:49:29.933Z,5.50
2022-11-03T03:51:57.751Z,5.27
2022-11-03T03:54:25.557Z,5.20
2022-11-03T03:57:02.330Z,5.42
2022-11-03T03:59:30.202Z,5.46
2022-11-03T04:01:58.384Z,5.37
2022-11-03T04:04:26.353Z,5.48
2022-11-03T04:07:14.203Z,5.28
2022-11-03T04:09:42.022Z,5.27
2022-11-03T04:12:28.672Z,5.24
2022-11-03T04:15:14.299Z,5.22
2022-11-03T04:18:02.413Z,4.83
2022-11-03T04:20:47.803Z,4.81
2022-11-03T04:23:15.694Z,4.74
2022-11-03T04:25:48.748Z,4.92
2022-11-03T04:28:18.160Z,4.96
2022-11-03T04:30:46.075Z,4.93
2022-11-03T04:33:16.292Z,4.88
2022-11-03T04:35:45.274Z,4.87
2022-11-03T04:38:23.121Z,4.82
2022-11-03T04:40:55.092Z,4.83
2022-11-03T04:43:32.419Z,4.74
2022-11-03T04:46:00.245Z,4.61
2022-11-03T04:48:30.142Z,4.63
2022-11-03T04:51:01.321Z,4.60
2022-11-03T04:53:33.280Z,4.68
2022-11-03T04:56:06.079Z,4.60
2022-11-03T04:58:37.528Z,4.76
2022-11-03T05:01:10.716Z,4.71
2022-11-03T05:03:40.470Z,4.71
2022-11-03T05:06:13.176Z,4.76
2022-11-03T05:08:41.056Z,4.79
2022-11-03T05:11:20.355Z,4.77
2022-11-03T05:13:49.697Z,4.83
2022-11-03T05:16:18.608Z,4.79
2022-11-03T05:18:49.283Z,4.86
2022-11-03T05:21:19.336Z,4.78
2022-11-03T05:23:49.370Z,4.65
2022-11-03T05:26:20.977Z,4.68
2022-11-03T05:28:54.447Z,4.81
2022-11-03T05:31:25.001Z,4.78
2022-11-03T05:33:54.264Z,4.74
2022-11-03T05:36:24.281Z,4.66
2022-11-03T05:38:54.993Z,4.80
2022-11-03T05:41:25.655Z,4.84
2022-11-03T05:43:58.627Z,4.74
2022-11-03T05:46:30.150Z,4.74
2022-11-03T05:49:01.785Z,4.74
2022-11-03T05:51:35.145Z,4.73
2022-11-03T05:54:05.977Z,4.74
2022-11-03T05:56:35.795Z,4.58
2022-11-03T05:59:06.074Z,4.57
2022-11-03T06:01:37.562Z,4.57
2022-11-03T06:04:17.182Z,4.52
2022-11-03T06:06:51.860Z,4.65
2022-11-03T06:09:21.547Z,4.52
2022-11-03T06:11:52.855Z,4.50
2022-11-03T06:14:24.850Z,4.51
2022-11-03T06:16:55.530Z,4.33
2022-11-03T06:19:27.664Z,4.33
2022-11-03T06:21:58.069Z,4.34
2022-11-03T06:24:30.688Z,4.44
2022-11-03T06:26:59.200Z,4.30
2022-11-03T06:29:33.423Z,4.45
2022-11-03T06:32:01.946Z,4.41
2022-11-03T06:34:42.907Z,4.40
2022-11-03T06:37:22.284Z,4.60
2022-11-03T06:39:51.171Z,4.70
2022-11-03T06:42:23.127Z,4.62
2022-11-03T06:44:53.811Z,4.41
2022-11-03T06:47:24.072Z,4.45
2022-11-03T06:49:54.120Z,4.51
2022-11-03T06:52:27.042Z,4.53
2022-11-03T06:55:17.294Z,4.67
2022-11-03T06:57:47.967Z,4.64
2022-11-03T07:00:40.431Z,4.80
2022-11-03T07:03:15.423Z,4.90
2022-11-03T07:05:47.506Z,4.93
2022-11-03T07:08:27.800Z,5.00
2022-11-03T07:11:01.851Z,4.99
2022-11-03T07:13:32.796Z,4.83
2022-11-03T07:16:02.231Z,4.94
2022-11-03T07:18:35.077Z,5.05
2022-11-03T07:21:08.046Z,5.21
2022-11-03T07:23:36.024Z,5.27
2022-11-03T07:26:04.030Z,5.52
2022-11-03T07:28:36.131Z,5.50
2022-11-03T07:31:16.508Z,5.55
2022-11-03T07:33:44.942Z,5.65
2022-11-03T07:36:17.524Z,5.69
2022-11-03T07:38:48.573Z,5.74
2022-11-03T07:41:20.701Z,5.78
2022-11-03T07:43:55.685Z,5.91
2022-11-03T07:46:26.464Z,5.98
2022-11-03T07:49:02.165Z,6.08
2022-11-03T07:51:40.722Z,6.29
2022-11-03T07:54:16.239Z,6.40
2022-11-03T07:56:51.687Z,6.56
2022-11-03T07:59:26.293Z,6.75
2022-11-03T08:01:58.523Z,6.89
2022-11-03T08:04:28.353Z,6.98
2022-11-03T08:06:56.311Z,7.18
2022-11-03T08:09:24.201Z,7.20
2022-11-03T08:11:52.783Z,7.30
2022-11-03T08:14:28.516Z,7.37
2022-11-03T08:16:59.368Z,7.40
2022-11-03T08:19:28.249Z,7.43
2022-11-03T08:21:56.090Z,7.48
2022-11-03T08:24:24.014Z,7.54
2022-11-03T08:26:54.604Z,7.59
2022-11-03T08:29:22.390Z,7.64
2022-11-03T08:31:50.316Z,7.80
2022-11-03T08:34:19.474Z,7.87
2022-11-03T08:36:47.386Z,8.04
2022-11-03T08:39:15.257Z,8.09
2022-11-03T08:41:43.173Z,8.13
2022-11-03T08:44:11.082Z,8.27
2022-11-03T08:46:38.925Z,8.44
2022-11-03T08:49:06.732Z,8.51
2022-11-03T08:51:40.107Z,8.55
2022-11-03T08:54:10.902Z,8.66
2022-11-03T08:56:38.649Z,8.76
2022-11-03T08:59:09.405Z,8.84
2022-11-03T09:01:37.334Z,9.00
2022-11-03T09:04:05.600Z,9.14
2022-11-03T09:06:33.568Z,9.25
2022-11-03T09:11:50.689Z,9.37
2022-11-03T09:14:18.550Z,9.46
2022-11-03T09:16:46.408Z,9.54
2022-11-03T09:19:14.302Z,9.63
2022-11-03T09:21:42.160Z,9.78
2022-11-03T09:24:11.334Z,9.75
2022-11-03T09:26:39.176Z,11.26
2022-11-03T09:29:07.872Z,11.01
2022-11-03T09:31:35.762Z,10.85
2022-11-03T09:34:04.161Z,10.71
2022-11-03T09:36:32.002Z,10.68
2022-11-03T09:38:59.930Z,10.72
2022-11-03T09:41:53.722Z,10.68
2022-11-03T09:44:17.535Z,11.03
2022-11-03T09:46:45.483Z,11.01
2022-11-03T09:49:15.728Z,10.80
2022-11-03T09:51:44.290Z,10.68
2022-11-03T09:54:18.380Z,10.80
2022-11-03T09:56:48.030Z,10.87
2022-11-03T09:59:17.779Z,10.82
2022-11-03T10:01:48.813Z,11.02
2022-11-03T10:04:18.115Z,11.08
2022-11-03T10:06:46.001Z,11.25
2022-11-03T10:09:20.625Z,11.20
2022-11-03T10:11:52.040Z,11.38
2022-11-03T10:14:20.977Z,11.44
2022-11-03T10:16:53.841Z,11.50
2022-11-03T10:19:22.007Z,11.68
2022-11-03T10:21:49.975Z,11.66
2022-11-03T10:24:18.128Z,11.67
2022-11-03T10:26:47.770Z,11.86
2022-11-03T10:29:21.995Z,12.06
2022-11-03T10:31:51.863Z,12.01
2022-11-03T10:34:34.926Z,12.09
2022-11-03T10:37:20.871Z,12.15
2022-11-03T10:39:49.649Z,12.31
2022-11-03T10:42:21.032Z,12.32
2022-11-03T10:44:52.991Z,12.29
2022-11-03T10:47:26.571Z,12.52
2022-11-03T10:49:56.004Z,12.60
2022-11-03T10:52:26.284Z,12.51
2022-11-03T10:54:57.490Z,12.67
2022-11-03T10:57:26.354Z,12.75
2022-11-03T10:59:55.926Z,12.80
2022-11-03T11:02:26.513Z,12.71
2022-11-03T11:04:59.149Z,12.71
2022-11-03T11:07:33.233Z,12.73
2022-11-03T11:10:08.362Z,12.83
2022-11-03T11:12:36.619Z,12.99
2022-11-03T11:15:40.396Z,13.08
2022-11-03T11:18:09.046Z,13.14
2022-11-03T11:32:59.137Z,12.75
2022-11-03T11:36:09.890Z,12.71
2022-11-03T11:39:14.543Z,12.70
2022-11-03T11:42:11.821Z,12.46
2022-11-03T11:45:03.920Z,12.42
2022-11-03T11:47:47.245Z,12.51
2022-11-03T11:50:29.331Z,12.52
2022-11-03T11:53:00.436Z,12.52
2022-11-03T11:55:34.784Z,12.48
2022-11-03T11:58:05.242Z,12.54
2022-11-03T12:00:35.358Z,12.78
2022-11-03T12:03:06.960Z,12.67
2022-11-03T12:05:37.208Z,12.65
2022-11-03T12:08:18.451Z,12.57
2022-11-03T12:10:54.310Z,12.56
2022-11-03T12:13:47.348Z,12.50
2022-11-03T12:16:45.155Z,12.43
2022-11-03T12:19:39.722Z,12.46
2022-11-03T12:22:10.897Z,12.59
2022-11-03T12:24:50.654Z,12.58
2022-11-03T12:27:43.197Z,12.50
2022-11-03T12:30:16.687Z,12.50
2022-11-03T12:32:44.809Z,12.58
2022-11-03T12:35:14.482Z,12.59
2022-11-03T12:37:43.755Z,12.66
2022-11-03T12:40:14.356Z,12.62
2022-11-03T12:42:42.193Z,12.64
2022-11-03T12:45:13.682Z,12.59
2022-11-03T12:47:42.040Z,12.61
2022-11-03T12:50:10.716Z,12.58
2022-11-03T12:52:38.691Z,12.68
2022-11-03T12:55:08.975Z,12.68
2022-11-03T12:57:36.852Z,12.61
2022-11-03T13:00:06.487Z,12.63
2022-11-03T13:02:34.790Z,12.61
2022-11-03T13:05:02.800Z,12.63
2022-11-03T13:07:34.730Z,12.56
2022-11-03T13:10:04.219Z,12.59
2022-11-03T13:12:33.862Z,12.66
2022-11-03T13:15:03.317Z,12.60
2022-11-03T13:17:40.305Z,12.66
2022-11-03T13:20:19.491Z,12.67
2022-11-03T13:22:47.374Z,12.62
2022-11-03T13:25:15.553Z,12.69
2022-11-03T13:27:45.064Z,12.74
2022-11-03T13:30:14.263Z,12.83
2022-11-03T13:32:42.315Z,12.85
2022-11-03T13:35:13.641Z,12.94
2022-11-03T13:37:43.049Z,12.88
2022-11-03T13:40:29.418Z,12.90
2022-11-03T13:43:02.172Z,12.97
2022-11-03T13:45:30.091Z,12.82
2022-11-03T13:50:46.317Z,13.00
2022-11-03T13:56:06.928Z,12.95
2022-11-03T14:01:26.178Z,12.93
2022-11-03T14:06:44.743Z,12.99
2022-11-03T14:09:13.438Z,12.90
2022-11-03T14:11:58.818Z,12.87
2022-11-03T14:14:28.150Z,12.82
2022-11-03T14:16:58.929Z,12.80
2022-11-03T14:19:34.497Z,12.62
2022-11-03T14:22:04.512Z,12.60
2022-11-03T14:24:32.286Z,12.50
2022-11-03T14:27:00.150Z,12.51
2022-11-03T14:29:29.415Z,12.55
2022-11-03T14:31:57.201Z,12.50
2022-11-03T14:34:25.082Z,12.48
2022-11-03T14:36:52.984Z,12.40
2022-11-03T14:39:20.837Z,12.34
2022-11-03T14:42:06.813Z,12.41
2022-11-03T14:44:38.310Z,12.30
2022-11-03T14:47:08.961Z,12.18
2022-11-03T14:49:37.776Z,12.17
2022-11-03T14:52:07.440Z,12.89
2022-11-03T14:54:36.594Z,12.86
2022-11-03T14:57:05.061Z,12.30
2022-11-03T14:59:33.514Z,12.06
2022-11-03T15:02:03.460Z,12.20
2022-11-03T15:04:31.698Z,12.09
2022-11-03T15:06:59.815Z,11.77
2022-11-03T15:09:27.636Z,11.93
2022-11-03T15:11:55.760Z,11.68
2022-11-03T15:14:23.609Z,11.60
2022-11-03T15:16:51.427Z,11.44
2022-11-03T15:19:20.765Z,11.47
2022-11-03T15:21:48.644Z,11.45
2022-11-03T15:27:04.938Z,11.46
2022-11-03T15:29:32.817Z,11.35
2022-11-03T15:32:00.756Z,11.16
2022-11-03T15:34:31.170Z,11.11
2022-11-03T15:36:59.079Z,11.20
2022-11-03T15:39:29.724Z,11.15
2022-11-03T15:41:59.935Z,11.18
2022-11-03T15:44:27.829Z,11.08
2022-11-03T15:46:55.988Z,10.95
2022-11-03T15:49:23.899Z,10.91
2022-11-03T15:51:53.070Z,10.95
2022-11-03T15:54:20.965Z,10.96
2022-11-03T15:56:48.925Z,10.97
2022-11-03T15:59:16.753Z,10.95
2022-11-03T16:01:44.597Z,10.97
2022-11-03T16:04:12.835Z,10.93
2022-11-03T16:07:06.028Z,10.87
2022-11-03T16:09:29.711Z,10.76
2022-11-03T16:11:58.967Z,10.83
2022-11-03T16:14:27.756Z,10.73
2022-11-03T16:16:56.598Z,10.88
2022-11-03T16:19:24.501Z,10.80
2022-11-03T16:21:52.647Z,10.91
2022-11-03T16:24:20.497Z,10.91
2022-11-03T16:26:50.747Z,10.67
2022-11-03T16:29:18.669Z,10.80
2022-11-03T16:31:48.267Z,10.81
2022-11-03T16:34:16.184Z,10.79
2022-11-03T16:36:44.323Z,10.79
2022-11-03T16:39:12.518Z,10.66
2022-11-03T16:41:40.355Z,10.72
2022-11-03T16:44:09.562Z,10.71
2022-11-03T16:46:37.912Z,10.67
2022-11-03T16:49:05.755Z,10.54
2022-11-03T16:51:33.598Z,10.43
2022-11-03T16:54:01.418Z,10.56
2022-11-03T16:56:29.472Z,10.46
2022-11-03T16:58:57.412Z,10.56
2022-11-03T17:01:27.321Z,10.62
2022-11-03T17:03:55.328Z,10.32
2022-11-03T17:06:23.327Z,10.45
2022-11-03T17:08:53.193Z,10.53
2022-11-03T17:11:35.878Z,10.57
2022-11-03T17:14:06.185Z,10.49
2022-11-03T17:16:36.470Z,10.50
2022-11-03T17:19:04.381Z,10.49
2022-11-03T17:21:32.173Z,10.53
2022-11-03T17:24:00.202Z,10.73
2022-11-03T17:26:37.812Z,10.54
2022-11-03T17:29:13.146Z,10.48
2022-11-03T17:31:42.563Z,10.48
2022-11-03T17:34:12.937Z,10.51
2022-11-03T17:36:41.279Z,10.42
2022-11-03T17:39:11.750Z,10.43
2022-11-03T17:41:39.673Z,10.43
2022-11-03T17:44:11.736Z,10.49
2022-11-03T17:46:39.620Z,10.61
2022-11-03T17:49:08.911Z,10.50
2022-11-03T17:51:41.995Z,10.49
2022-11-03T17:54:13.652Z,10.50
2022-11-03T17:56:42.075Z,10.53
2022-11-03T17:59:16.056Z,10.63
2022-11-03T18:01:47.935Z,10.34
2022-11-03T18:04:17.382Z,10.44
2022-11-03T18:06:45.478Z,10.37
2022-11-03T18:09:15.933Z,10.34
2022-11-03T18:12:01.727Z,10.39
2022-11-03T18:14:31.229Z,10.40
2022-11-03T18:16:59.464Z,10.38
2022-11-03T18:19:28.951Z,10.38
2022-11-03T18:21:57.319Z,10.34
2022-11-03T18:24:26.739Z,10.38
2022-11-03T18:26:54.620Z,10.36
2022-11-03T18:29:22.513Z,10.35
2022-11-03T18:31:51.138Z,10.37
2022-11-03T18:34:23.440Z,10.37
2022-11-03T18:36:53.244Z,10.18
2022-11-03T18:39:24.197Z,10.32
2022-11-03T18:41:52.228Z,10.22
2022-11-03T18:44:22.648Z,10.39
2022-11-03T18:46:52.233Z,10.23
2022-11-03T18:49:20.535Z,10.17
2022-11-03T18:51:50.780Z,10.16
2022-11-03T18:54:22.615Z,10.17
2022-11-03T18:56:51.168Z,10.27
2022-11-03T18:59:24.685Z,10.21
2022-11-03T19:01:54.918Z,10.35
2022-11-03T19:04:22.891Z,10.23
2022-11-03T19:06:52.921Z,10.35
2022-11-03T19:09:24.742Z,10.05
2022-11-03T19:11:56.537Z,10.08
2022-11-03T19:14:26.912Z,10.06
2022-11-03T19:19:44.885Z,10.16
2022-11-03T19:22:15.166Z,10.07
2022-11-03T19:24:45.847Z,10.09
2022-11-03T19:27:18.163Z,9.99
2022-11-03T19:29:47.785Z,10.07
2022-11-03T19:32:19.917Z,10.15
2022-11-03T19:34:52.381Z,10.07
2022-11-03T19:37:20.574Z,10.13
2022-11-03T19:39:49.980Z,10.15
2022-11-03T19:42:28.527Z,10.06
2022-11-03T19:44:58.088Z,10.44
2022-11-03T19:47:32.488Z,10.08
2022-11-03T19:50:02.341Z,10.01
2022-11-03T19:52:32.732Z,10.01
2022-11-03T19:55:05.669Z,10.00
2022-11-03T19:57:34.267Z,9.96
2022-11-03T20:00:03.112Z,9.98
2022-11-03T20:02:35.962Z,9.85
2022-11-03T20:05:04.357Z,9.92
2022-11-03T20:07:32.848Z,9.86
2022-11-03T20:10:04.154Z,9.78
2022-11-03T20:12:32.477Z,9.88
2022-11-03T20:15:00.575Z,9.69
2022-11-03T20:17:28.567Z,9.73
2022-11-03T20:19:56.411Z,9.70
2022-11-03T20:22:31.152Z,9.85
2022-11-03T20:25:03.107Z,9.82
2022-11-03T20:27:33.151Z,9.71
2022-11-03T20:30:04.351Z,9.72
2022-11-03T20:32:32.181Z,9.79
2022-11-03T20:35:00.098Z,9.52
2022-11-03T20:37:27.864Z,9.47
2022-11-03T20:39:55.708Z,9.51
2022-11-03T20:42:25.628Z,9.51
2022-11-03T20:44:58.524Z,9.47
2022-11-03T20:47:26.320Z,9.42
2022-11-03T20:49:54.795Z,9.37
2022-11-03T20:52:22.664Z,9.38
2022-11-03T20:54:51.867Z,9.38
2022-11-03T20:57:19.818Z,9.30
2022-11-03T20:59:47.758Z,9.28
2022-11-03T21:02:17.199Z,9.19
2022-11-03T21:04:48.462Z,9.37
2022-11-03T21:07:19.056Z,9.10
2022-11-03T21:09:46.936Z,8.97
2022-11-03T21:12:14.959Z,8.90
2022-11-03T21:15:00.421Z,9.03
2022-11-03T21:17:46.926Z,9.00
2022-11-03T21:20:14.866Z,9.07
2022-11-03T21:22:53.218Z,8.70
2022-11-03T21:25:24.691Z,9.07
2022-11-03T21:27:54.126Z,8.88
2022-11-03T21:30:22.945Z,8.97
2022-11-03T21:32:53.906Z,8.92
2022-11-03T21:35:22.911Z,8.93
2022-11-03T21:37:52.965Z,8.91
2022-11-03T21:40:22.522Z,8.78
2022-11-03T21:43:07.884Z,8.99
2022-11-03T21:45:35.963Z,8.75
2022-11-03T21:48:23.734Z,8.69
2022-11-03T21:50:51.852Z,8.94
2022-11-03T21:53:19.837Z,8.73
2022-11-03T21:55:49.072Z,8.88
2022-11-03T21:58:17.615Z,8.78
2022-11-03T22:00:47.002Z,8.60
2022-11-03T22:03:16.546Z,8.72
2022-11-03T22:05:44.532Z,8.68
2022-11-03T22:08:12.461Z,8.76
2022-11-03T22:10:41.030Z,9.01
2022-11-03T22:13:09.248Z,9.01
2022-11-03T22:15:54.904Z,8.93
2022-11-03T22:18:24.559Z,9.05
2022-11-03T22:21:10.210Z,8.94
2022-11-03T22:24:10.047Z,8.93
2022-11-03T22:26:54.537Z,8.94
2022-11-03T22:29:39.121Z,8.89
2022-11-03T22:32:14.259Z,9.10
2022-11-03T22:35:00.743Z,8.86
2022-11-03T22:40:13.710Z,8.88
2022-11-03T22:42:59.371Z,8.71
2022-11-03T22:45:44.603Z,8.71
2022-11-03T22:48:12.693Z,8.82
2022-11-03T22:50:41.904Z,8.71
2022-11-03T22:53:27.399Z,8.53
2022-11-03T22:55:55.232Z,8.61
2022-11-03T22:58:27.845Z,8.73
2022-11-03T23:00:58.383Z,8.83
2022-11-03T23:03:26.285Z,8.81
2022-11-03T23:05:55.478Z,8.57
2022-11-03T23:08:23.491Z,8.63
2022-11-03T23:10:51.395Z,8.51
2022-11-03T23:13:19.319Z,8.52
2022-11-03T23:15:47.153Z,8.62
2022-11-03T23:18:32.716Z,8.72
2022-11-03T23:21:07.617Z,8.55
2022-11-03T23:23:53.708Z,8.61
2022-11-03T23:26:24.258Z,8.56
2022-11-03T23:28:52.282Z,8.27
2022-11-03T23:31:20.204Z,8.16
2022-11-03T23:33:48.051Z,8.18
2022-11-03T23:36:18.615Z,8.41
2022-11-03T23:38:47.118Z,8.55
2022-11-03T23:41:16.597Z,8.59
2022-11-03T23:43:45.430Z,8.37
2022-11-03T23:46:32.602Z,7.98
2022-11-03T23:49:00.668Z,7.94
2022-11-03T23:51:31.263Z,7.90
2022-11-03T23:54:00.628Z,8.10
2022-11-03T23:56:49.141Z,8.11
2022-11-03T23:59:17.812Z,7.92
